Time;durP1;ratioP1;P1;durP2;ratioP2;P2;SDS_P1;SDS_P2;PMS_P1;PMS_P2;Temp;Humidity;BMP_temperature;BMP_pressure;BME280_temperature;BME280_humidity;BME280_pressure;Samples;Min_cycle;Max_cycle;Signal;HPM_P1;HPM_P2
2020/12/14 00:01:31;;;;;;;0.15;0.15;;;6.30;94.80;;;10.16;79.23;100818.97;4988628;28;96771;-71
2020/12/14 00:03:58;;;;;;;5.65;0.68;;;6.40;94.90;;;10.14;79.56;100811.25;4986880;28;96754;-70
2020/12/14 00:06:26;;;;;;;0.52;0.52;;;6.40;94.90;;;10.19;79.30;100818.38;4989659;28;97143;-71
2020/12/14 00:08:54;;;;;;;0.57;0.57;;;6.40;94.90;;;10.11;79.41;100800.34;4985536;28;97921;-70
2020/12/14 00:11:21;;;;;;;1.38;1.10;;;6.40;94.90;;;10.03;79.79;100809.06;4971497;28;97852;-70
2020/12/14 00:13:50;;;;;;;1.00;0.90;;;6.40;94.80;;;9.95;79.58;100813.19;4988202;28;96846;-70
2020/12/14 00:16:18;;;;;;;0.80;0.73;;;6.40;94.80;;;9.90;79.53;100809.78;4984990;28;96786;-71
2020/12/14 00:18:46;;;;;;;0.50;0.50;;;6.40;94.80;;;9.85;79.51;100817.91;4983207;28;97861;-71
2020/12/14 00:21:17;;;;;;;0.98;0.70;;;6.30;94.70;;;9.74;79.52;100811.94;4989457;28;96673;-72
2020/12/14 00:23:47;;;;;;;0.55;0.47;;;6.30;94.70;;;9.68;79.63;100807.00;5002950;28;97287;-71
2020/12/14 00:26:14;;;;;;;0.40;0.40;;;6.20;94.70;;;9.55;80.03;100803.19;4972514;28;96847;-72
2020/12/14 00:28:42;;;;;;;0.20;0.20;;;6.20;94.70;;;9.58;80.16;100805.28;4968920;28;97937;-72
2020/12/14 00:31:12;;;;;;;0.35;0.35;;;6.10;94.80;;;9.58;79.93;100796.44;4969711;28;97838;-72
2020/12/14 00:33:40;;;;;;;0.50;0.50;;;6.10;94.80;;;9.58;79.82;100789.22;4980277;28;96750;-72
2020/12/14 00:36:08;;;;;;;0.55;0.43;;;6.10;94.80;;;9.59;79.84;100792.69;4982055;28;98111;-72
2020/12/14 00:38:37;;;;;;;2.42;0.35;;;6.00;94.80;;;9.56;79.92;100794.06;4985404;28;96940;-72
2020/12/14 00:41:06;;;;;;;0.88;0.85;;;6.00;94.80;;;9.56;79.81;100779.91;4964603;28;97773;-71
2020/12/14 00:43:34;;;;;;;23.88;1.05;;;6.00;94.90;;;9.53;79.57;100780.50;4984583;28;96677;-71
2020/12/14 00:46:06;;;;;;;1.08;0.60;;;6.00;94.90;;;9.49;79.89;100774.13;4978826;28;96769;-72
2020/12/14 00:48:34;;;;;;;0.32;0.32;;;6.00;94.90;;;9.41;80.16;100775.59;4968149;28;98239;-72
2020/12/14 00:51:03;;;;;;;0.40;0.40;;;6.00;94.90;;;9.41;80.23;100767.56;4983476;28;98411;-72
2020/12/14 00:53:32;;;;;;;7.32;0.60;;;5.90;94.90;;;9.39;80.22;100767.06;4987939;28;96871;-72
2020/12/14 00:56:02;;;;;;;0.40;0.40;;;5.90;94.90;;;9.35;80.28;100759.94;4987604;28;96825;-72
2020/12/14 00:58:31;;;;;;;4.00;1.25;;;5.90;95.00;;;9.38;80.27;100759.38;4978919;28;98052;-72
2020/12/14 01:01:00;;;;;;;0.35;0.35;;;5.90;95.00;;;9.33;80.27;100762.13;4982430;28;97699;-72
2020/12/14 01:03:33;;;;;;;6.90;1.60;;;5.90;95.00;;;9.33;80.48;100762.13;4985851;28;97056;-71
2020/12/14 01:06:04;;;;;;;0.28;0.28;;;5.90;95.00;;;9.33;80.41;100762.13;4971379;28;96650;-71
2020/12/14 01:08:33;;;;;;;0.82;0.82;;;5.90;95.00;;;9.49;80.28;100758.09;4982742;28;99715;-72
2020/12/14 01:11:02;;;;;;;2.22;2.05;;;5.90;95.00;;;9.57;79.92;100763.56;4979161;28;97104;-72
2020/12/14 01:13:30;;;;;;;1.45;1.17;;;5.90;95.00;;;9.55;80.07;100764.94;4986272;28;96792;-72
2020/12/14 01:15:58;;;;;;;0.20;0.20;;;5.90;95.10;;;9.55;79.97;100759.59;4972572;28;96765;-72
2020/12/14 01:18:26;;;;;;;2.10;2.00;;;6.00;95.10;;;9.65;79.91;100760.22;4973130;28;96880;-72
2020/12/14 01:20:54;;;;;;;0.15;0.15;;;6.00;95.00;;;9.76;79.53;100755.47;4969903;28;97975;-71
2020/12/14 01:23:22;;;;;;;1.98;1.35;;;6.00;95.00;;;9.77;79.41;100765.09;4986287;28;96703;-71
2020/12/14 01:25:49;;;;;;;2.13;0.93;;;6.00;95.00;;;9.83;79.59;100762.03;4980633;28;96682;-72
2020/12/14 01:28:17;;;;;;;0.20;0.20;;;6.00;95.30;;;9.82;79.45;100768.47;4989300;28;99122;-72
2020/12/14 01:30:44;;;;;;;1.05;1.02;;;6.00;95.00;;;9.78;79.57;100759.47;4986477;28;97732;-72
2020/12/14 01:33:12;;;;;;;11.68;1.08;;;6.10;95.00;;;9.82;79.59;100765.00;4987548;28;97005;-71
2020/12/14 01:35:40;;;;;;;0.30;0.30;;;6.10;95.00;;;9.79;79.70;100768.25;4985431;28;96917;-72
2020/12/14 01:38:08;;;;;;;1.50;0.70;;;6.10;95.00;;;9.84;79.64;100762.81;4988932;28;98162;-72
2020/12/14 01:40:36;;;;;;;4.20;1.73;;;6.10;95.00;;;9.89;79.32;100752.81;4971104;28;97154;-72
2020/12/14 01:43:05;;;;;;;1.75;1.58;;;6.10;95.00;;;9.87;79.37;100752.31;4971054;28;96771;-73
2020/12/14 01:45:32;;;;;;;1.63;1.45;;;6.10;95.00;;;9.86;79.34;100747.25;4985274;28;97003;-72
2020/12/14 01:48:06;;;;;;;0.30;0.30;;;6.20;95.00;;;9.86;79.39;100753.41;4980840;28;98085;-72
2020/12/14 01:50:34;;;;;;;1.65;1.23;;;6.10;94.90;;;9.88;79.41;100737.03;4987478;28;96712;-72
2020/12/14 01:53:07;;;;;;;0.52;0.52;;;6.10;95.00;;;9.89;79.14;100743.97;4986378;28;96625;-72
2020/12/14 01:55:41;;;;;;;0.40;0.40;;;6.10;94.90;;;9.86;79.37;100731.19;4989272;28;96797;-73
2020/12/14 01:58:10;;;;;;;0.95;0.43;;;6.10;95.00;;;9.92;79.12;100732.72;4987948;28;96933;-72
2020/12/14 02:00:37;;;;;;;0.65;0.65;;;6.20;94.90;;;9.93;79.25;100728.94;4987020;28;97351;-72
2020/12/14 02:03:05;;;;;;;0.50;0.50;;;6.20;95.00;;;9.88;79.48;100729.81;4991110;28;96793;-72
2020/12/14 02:05:33;;;;;;;0.70;0.70;;;6.20;94.90;;;9.90;79.86;100724.97;4991197;28;96806;-73
2020/12/14 02:08:05;;;;;;;0.63;0.63;;;6.20;94.90;;;9.94;79.57;100715.25;4983262;28;96841;-71
2020/12/14 02:10:33;;;;;;;4.60;0.50;;;6.20;94.90;;;9.96;79.29;100712.28;4985474;28;97147;-71
2020/12/14 02:13:02;;;;;;;1.10;0.57;;;6.20;94.90;;;10.01;78.91;100709.53;4983471;28;96745;-72
2020/12/14 02:15:31;;;;;;;0.57;0.57;;;6.20;94.90;;;9.99;78.99;100720.50;4973397;28;96858;-72
2020/12/14 02:17:58;;;;;;;1.38;0.70;;;6.20;94.90;;;10.01;79.75;100725.59;4971521;28;97985;-72
2020/12/14 02:20:26;;;;;;;0.65;0.65;;;6.20;94.90;;;9.99;79.44;100733.09;4984632;28;96885;-72
2020/12/14 02:22:54;;;;;;;1.77;1.02;;;6.20;94.90;;;10.01;79.20;100722.91;4991904;28;96865;-71
2020/12/14 02:25:22;;;;;;;0.93;0.85;;;6.30;94.90;;;10.05;78.91;100726.59;4987554;28;96769;-71
2020/12/14 02:27:50;;;;;;;0.50;0.50;;;6.20;94.90;;;10.08;79.13;100717.94;4989452;28;96948;-72
2020/12/14 02:30:18;;;;;;;3.22;0.90;;;6.30;94.90;;;10.05;79.11;100707.84;4986901;28;97669;-71
2020/12/14 02:32:46;;;;;;;0.70;0.65;;;6.30;94.90;;;10.00;79.32;100705.25;4980368;28;96768;-72
2020/12/14 02:35:13;;;;;;;0.25;0.20;;;6.30;94.90;;;10.05;79.13;100700.59;4989767;28;96869;-72
2020/12/14 02:37:41;;;;;;;2.95;0.52;;;6.30;94.90;;;10.08;79.27;100701.91;4982719;28;97377;-71
2020/12/14 02:40:09;;;;;;;0.10;0.10;;;6.30;94.90;;;10.13;79.07;100702.59;4988038;28;98026;-72
2020/12/14 02:42:39;;;;;;;0.43;0.43;;;6.30;94.90;;;10.15;79.15;100683.53;4983327;28;96770;-73
2020/12/14 02:45:07;;;;;;;2.15;1.67;;;6.40;94.90;;;10.15;79.13;100697.72;4991856;28;97526;-72
2020/12/14 02:47:34;;;;;;;0.95;0.68;;;6.40;94.90;;;10.07;79.17;100697.63;4985872;28;99149;-72
2020/12/14 02:50:05;;;;;;;14.02;1.35;;;6.40;94.90;;;9.97;79.78;100695.91;4983847;28;98751;-71
2020/12/14 02:52:33;;;;;;;2.67;0.65;;;6.40;94.90;;;10.00;79.92;100692.63;4976858;28;97085;-71
2020/12/14 02:55:00;;;;;;;4.57;2.05;;;6.40;94.90;;;10.16;79.40;100695.81;4978943;28;97079;-71
2020/12/14 02:57:31;;;;;;;0.45;0.45;;;6.40;94.90;;;10.15;79.27;100691.56;4987361;28;96826;-72
2020/12/14 03:00:07;;;;;;;1.13;0.88;;;6.40;94.90;;;10.12;79.53;100686.81;4987321;28;97328;-72
2020/12/14 03:02:35;;;;;;;;;;;6.40;94.90;;;10.05;79.43;100692.56;4994010;28;97342;-72
2020/12/14 03:05:04;;;;;;;2.67;1.25;;;6.40;94.90;;;10.05;79.97;100689.09;5003289;28;96870;-71
2020/12/14 03:07:32;;;;;;;0.63;0.63;;;6.50;94.90;;;10.16;79.89;100685.94;4983528;28;96793;-72
2020/12/14 03:09:59;;;;;;;0.30;0.30;;;6.50;94.90;;;10.23;79.29;100683.63;5004009;28;97694;-71
2020/12/14 03:12:32;;;;;;;2.13;1.45;;;6.50;94.90;;;10.27;79.50;100675.81;4990240;28;96779;-72
2020/12/14 03:15:02;;;;;;;0.20;0.20;;;6.50;94.90;;;10.27;79.34;100675.81;4985339;28;96910;-71
2020/12/14 03:17:32;;;;;;;3.58;1.23;;;6.50;94.80;;;10.28;79.41;100672.03;4988650;28;97025;-71
2020/12/14 03:19:59;;;;;;;0.10;0.10;;;6.60;94.80;;;10.31;79.15;100674.09;4984237;28;96702;-72
2020/12/14 03:22:32;;;;;;;;;;;6.60;94.80;;;10.35;79.06;100661.69;4987811;28;97111;-71
2020/12/14 03:25:00;;;;;;;0.13;0.13;;;6.60;94.80;;;10.22;79.60;100665.97;4989405;28;96869;-71
2020/12/14 03:27:30;;;;;;;13.70;1.45;;;6.60;94.80;;;10.23;79.54;100658.75;4982808;28;97626;-72
2020/12/14 03:29:58;;;;;;;2.55;0.68;;;6.60;94.80;;;10.21;79.73;100660.94;4985143;28;97713;-72
2020/12/14 03:32:25;;;;;;;0.93;0.70;;;6.60;94.80;;;10.30;79.72;100659.13;4970673;28;96707;-71
2020/12/14 03:34:54;;;;;;;0.17;0.17;;;6.60;94.80;;;10.33;79.04;100666.56;4982318;28;96741;-71
2020/12/14 03:37:24;;;;;;;0.40;0.40;;;6.60;94.80;;;10.45;79.11;100664.94;4988948;28;96924;-71
2020/12/14 03:39:52;;;;;;;0.38;0.38;;;6.60;94.80;;;10.49;79.00;100659.75;4988622;28;97667;-71
2020/12/14 03:42:21;;;;;;;0.35;0.35;;;6.70;94.80;;;10.49;79.32;100654.41;4988339;28;96870;-71
2020/12/14 03:44:49;;;;;;;1.00;0.40;;;6.70;94.80;;;10.56;78.30;100647.53;4989592;28;96898;-72
2020/12/14 03:47:17;;;;;;;3.33;0.95;;;6.70;94.80;;;10.57;78.87;100645.66;4985915;28;97207;-72
2020/12/14 03:49:44;;;;;;;1.52;0.75;;;6.70;94.80;;;10.41;79.03;100633.69;4972416;28;97706;-74
2020/12/14 03:52:13;;;;;;;0.50;0.50;;;6.70;94.80;;;10.35;79.27;100643.72;4984102;28;96892;-73
2020/12/14 03:54:40;;;;;;;0.63;0.63;;;6.70;94.80;;;10.24;79.29;100660.34;4974136;28;96698;-74
2020/12/14 03:57:08;;;;;;;0.68;0.40;;;6.60;94.80;;;10.24;79.02;100671.81;4983925;28;97843;-74
2020/12/14 03:59:37;;;;;;;0.90;0.40;;;6.60;94.80;;;10.16;79.12;100672.53;4988652;28;97883;-74
2020/12/14 04:02:05;;;;;;;0.35;0.32;;;6.60;94.80;;;10.16;79.36;100667.19;5002266;28;96660;-75
2020/12/14 04:04:33;;;;;;;3.30;0.40;;;6.60;94.80;;;10.16;79.45;100663.69;4988457;28;96737;-74
2020/12/14 04:07:02;;;;;;;2.53;1.23;;;6.60;94.80;;;10.14;79.53;100655.19;4983835;28;96934;-74
2020/12/14 04:09:31;;;;;;;3.50;0.75;;;6.50;94.80;;;10.13;79.52;100656.28;4985160;28;96563;-74
2020/12/14 04:11:59;;;;;;;0.98;0.75;;;6.50;94.90;;;10.15;79.54;100654.91;4991741;28;96780;-73
2020/12/14 04:14:28;;;;;;;0.20;0.20;;;6.50;94.90;;;10.12;79.41;100652.00;4982744;28;97102;-73
2020/12/14 04:16:56;;;;;;;0.20;0.20;;;6.50;94.90;;;10.15;79.57;100646.06;4993820;28;98188;-74
2020/12/14 04:19:23;;;;;;;0.80;0.70;;;6.50;95.00;;;10.13;79.36;100645.56;4986193;28;99073;-73
2020/12/14 04:21:52;;;;;;;0.28;0.28;;;6.50;95.00;;;10.14;79.52;100644.47;4982396;28;96744;-73
2020/12/14 04:24:20;;;;;;;2.60;1.10;;;6.50;95.00;;;10.13;79.63;100634.84;4980526;28;97211;-73
2020/12/14 04:26:53;;;;;;;1.15;1.08;;;6.50;95.00;;;10.14;79.64;100637.25;4961379;28;98976;-73
2020/12/14 04:29:21;;;;;;;0.20;0.20;;;6.50;95.00;;;10.20;79.57;100640.59;4981651;28;96781;-73
2020/12/14 04:31:50;;;;;;;7.47;1.20;;;6.50;95.00;;;10.25;79.45;100641.28;4972102;28;96822;-73
2020/12/14 04:34:19;;;;;;;0.65;0.65;;;6.60;95.00;;;10.28;79.55;100639.91;4982432;28;96967;-73
2020/12/14 04:36:49;;;;;;;0.65;0.38;;;6.50;95.00;;;10.35;79.09;100645.63;4986074;28;96705;-72
2020/12/14 04:39:17;;;;;;;0.20;0.20;;;6.60;95.00;;;10.35;79.11;100640.28;4988829;28;96740;-73
2020/12/14 04:41:45;;;;;;;0.63;0.63;;;6.60;95.00;;;10.42;79.18;100640.63;4978767;28;96700;-73
2020/12/14 04:44:14;;;;;;;0.68;0.68;;;6.60;95.00;;;10.51;78.69;100642.28;4983539;28;96830;-73
2020/12/14 04:46:44;;;;;;;0.28;0.28;;;6.60;95.00;;;10.56;78.50;100638.72;4984138;28;98655;-72
2020/12/14 04:49:11;;;;;;;0.20;0.20;;;6.70;95.00;;;10.57;78.93;100642.97;4989821;28;97740;-73
2020/12/14 04:51:40;;;;;;;0.82;0.77;;;6.70;95.00;;;10.56;78.82;100642.19;4984863;28;97249;-73
2020/12/14 04:54:08;;;;;;;0.45;0.45;;;6.70;95.00;;;10.62;78.83;100645.53;4982721;28;96950;-72
2020/12/14 04:56:41;;;;;;;2.60;1.40;;;6.70;95.00;;;10.60;79.05;100637.00;4985730;28;97853;-72
2020/12/14 04:59:11;;;;;;;0.20;0.20;;;6.70;95.00;;;10.57;79.45;100637.63;4988288;28;97500;-72
2020/12/14 05:01:39;;;;;;;0.22;0.22;;;6.80;95.00;;;10.60;79.22;100643.16;4982813;28;96753;-72
2020/12/14 05:04:07;;;;;;;0.10;0.10;;;6.80;95.00;;;10.61;79.28;100643.94;4975528;28;97028;-72
2020/12/14 05:06:49;;;;;;;0.10;0.10;;;6.80;95.00;;;10.63;79.17;100634.50;4983656;28;98826;-73
2020/12/14 05:09:19;;;;;;;2.13;1.63;;;6.80;95.00;;;10.69;79.27;100653.94;4986848;28;96956;-72
2020/12/14 05:11:47;;;;;;;0.30;0.30;;;6.90;95.00;;;10.70;79.27;100644.81;4988402;28;97608;-73
2020/12/14 05:14:20;;;;;;;0.80;0.80;;;6.90;94.90;;;10.69;78.94;100641.34;4981817;28;96909;-72
2020/12/14 05:16:50;;;;;;;0.15;0.15;;;6.90;94.90;;;10.69;78.88;100651.25;4985957;28;97931;-73
2020/12/14 05:19:25;;;;;;;0.63;0.63;;;6.90;94.90;;;10.67;79.29;100635.50;4986653;28;96851;-73
2020/12/14 05:21:56;;;;;;;0.20;0.20;;;6.90;94.90;;;10.61;79.30;100641.28;4971555;28;97007;-73
2020/12/14 05:24:28;;;;;;;0.57;0.57;;;6.90;94.90;;;10.61;79.14;100638.59;4985796;28;96906;-73
2020/12/14 05:26:59;;;;;;;0.10;0.10;;;6.90;94.90;;;10.66;78.72;100639.28;4979905;28;96790;-72
2020/12/14 05:29:30;;;;;;;1.90;1.73;;;6.90;94.90;;;10.65;78.92;100635.00;4990872;28;96837;-73
2020/12/14 05:32:09;;;;;;;0.38;0.38;;;6.90;94.90;;;10.69;78.65;100638.66;4996504;28;96747;-73
2020/12/14 05:34:38;;;;;;;1.48;1.05;;;6.90;94.90;;;10.67;78.73;100632.81;4986450;28;96840;-73
2020/12/14 05:37:10;;;;;;;3.13;1.08;;;6.90;94.90;;;10.67;78.61;100629.34;4990943;28;96832;-73
2020/12/14 05:39:39;;;;;;;1.55;0.75;;;6.90;94.90;;;10.67;78.77;100632.81;4974477;28;98162;-73
2020/12/14 05:42:11;;;;;;;1.27;0.45;;;6.90;94.90;;;10.69;79.00;100636.00;4974350;28;97334;-74
2020/12/14 05:44:41;;;;;;;1.23;0.55;;;6.90;95.00;;;10.73;78.76;100636.97;5001518;28;96795;-74
2020/12/14 05:47:30;;;;;;;0.20;0.20;;;6.90;95.00;;;10.70;79.41;100642.13;4978140;28;98207;-73
2020/12/14 05:50:00;;;;;;;0.20;0.20;;;6.90;95.00;;;10.69;78.67;100636.00;4986919;28;96730;-73
2020/12/14 05:52:34;;;;;;;0.43;0.40;;;6.90;95.00;;;10.70;78.65;100642.94;4985743;28;97311;-73
2020/12/14 05:55:04;;;;;;;25.65;1.35;;;6.90;95.00;;;10.65;79.01;100635.00;5003136;28;96982;-73
2020/12/14 05:57:38;;;;;;;1.42;0.73;;;6.90;95.00;;;10.66;79.03;100625.88;4988339;28;97569;-73
2020/12/14 06:00:10;;;;;;;0.15;0.15;;;6.90;95.00;;;10.66;79.28;100620.53;5000692;28;97746;-74
2020/12/14 06:02:39;;;;;;;0.17;0.13;;;6.90;95.00;;;10.70;79.05;100626.03;4982457;28;96831;-74
2020/12/14 06:05:09;;;;;;;0.38;0.38;;;6.90;95.00;;;10.69;78.95;100627.13;4969853;28;96815;-74
2020/12/14 06:07:38;;;;;;;0.73;0.73;;;6.90;95.00;;;10.71;78.89;100630.31;4989186;28;98044;-74
2020/12/14 06:10:12;;;;;;;0.98;0.40;;;6.90;95.00;;;10.70;78.82;100620.69;4990945;28;96953;-74
2020/12/14 06:12:45;;;;;;;8.05;0.68;;;6.90;95.00;;;10.69;78.79;100614.56;4990707;28;96713;-74
2020/12/14 06:15:17;;;;;;;0.95;0.95;;;6.80;95.00;;;10.70;78.80;100608.09;4986783;28;96913;-74
2020/12/14 06:17:46;;;;;;;1.75;0.63;;;6.80;95.00;;;10.70;78.57;100600.06;4983658;28;98027;-74
2020/12/14 06:20:19;;;;;;;0.43;0.43;;;6.80;95.10;;;10.76;78.50;100598.03;4968826;28;97184;-74
2020/12/14 06:22:52;;;;;;;2.53;1.15;;;6.80;95.10;;;10.78;78.42;100602.00;4948743;28;97386;-74
2020/12/14 06:25:25;;;;;;;2.40;0.77;;;6.90;95.10;;;10.85;78.72;100598.88;4991829;28;96784;-74
2020/12/14 06:27:53;;;;;;;0.52;0.52;;;6.90;95.10;;;10.82;78.62;100602.19;4981838;28;96810;-74
2020/12/14 06:30:33;;;;;;;0.82;0.82;;;6.90;95.10;;;10.82;78.68;100602.19;4978530;28;97825;-74
2020/12/14 06:33:09;;;;;;;2.33;0.82;;;6.90;95.20;;;10.84;78.49;100602.66;4988416;28;97011;-74
2020/12/14 06:35:49;;;;;;;0.20;0.20;;;6.90;95.20;;;10.85;78.47;100606.94;4979071;28;97154;-74
2020/12/14 06:38:38;;;;;;;0.65;0.63;;;6.90;95.20;;;10.89;78.39;100606.00;4980964;28;98086;-74
2020/12/14 06:41:14;;;;;;;0.32;0.15;;;6.90;95.20;;;10.89;78.33;100601.44;4980126;28;97667;-74
2020/12/14 06:43:42;;;;;;;1.25;0.70;;;7.00;95.20;;;10.94;78.83;100601.31;4985276;28;96791;-74
2020/12/14 06:46:11;;;;;;;0.47;0.40;;;7.00;95.20;;;10.99;78.87;100603.06;4984140;28;96957;-73
2020/12/14 06:48:45;;;;;;;0.52;0.52;;;7.00;95.20;;;11.01;78.19;100601.66;4972700;28;97030;-74
2020/12/14 06:51:15;;;;;;;0.30;0.30;;;7.10;95.20;;;11.07;78.87;100611.13;4986691;28;96866;-73
2020/12/14 06:53:52;;;;;;;0.35;0.35;;;7.10;95.20;;;11.10;78.26;100599.81;4985519;28;96749;-74
2020/12/14 06:56:44;;;;;;;0.35;0.35;;;7.10;95.20;;;11.12;78.76;100610.22;4970895;28;96998;-73
2020/12/14 06:59:28;;;;;;;0.30;0.30;;;7.20;95.20;;;11.19;78.65;100611.38;4982830;28;97444;-74
2020/12/14 07:01:57;;;;;;;12.40;0.80;;;7.20;95.20;;;11.18;78.51;100607.13;4987650;28;97772;-74
2020/12/14 07:04:42;;;;;;;0.20;0.20;;;7.20;95.20;;;11.17;78.42;100610.91;4981828;28;96831;-74
2020/12/14 07:07:34;;;;;;;0.40;0.40;;;7.20;95.20;;;11.20;78.83;100609.47;4985408;28;97163;-74
2020/12/14 07:10:16;;;;;;;0.40;0.40;;;7.20;95.20;;;11.19;78.45;100603.34;4984997;28;99037;-74
2020/12/14 07:12:47;;;;;;;1.73;1.63;;;7.20;95.20;;;11.19;78.72;100603.34;4987256;28;96914;-74
2020/12/14 07:15:35;;;;;;;0.10;0.10;;;7.20;95.10;;;11.19;78.91;100614.06;4986368;28;96689;-74
2020/12/14 07:18:08;;;;;;;2.47;0.75;;;7.30;95.20;;;11.26;78.85;100614.41;4965307;28;96901;-74
2020/12/14 07:20:57;;;;;;;1.20;0.80;;;7.30;95.20;;;11.33;78.74;100620.09;4980948;28;97922;-73
2020/12/14 07:23:27;;;;;;;0.43;0.43;;;7.30;95.10;;;11.17;78.65;100615.44;4980550;28;97700;-73
2020/12/14 07:25:56;;;;;;;3.75;0.65;;;7.40;95.20;;;11.15;79.00;100612.28;4980646;28;96761;-74
2020/12/14 07:28:44;;;;;;;14.70;0.57;;;7.40;95.10;;;11.15;79.01;100617.66;5000146;28;97032;-74
2020/12/14 07:31:16;;;;;;;1.17;0.73;;;7.40;95.10;;;11.08;79.22;100622.66;4985946;28;98342;-75
2020/12/14 07:33:55;;;;;;;0.52;0.52;;;7.40;95.10;;;11.02;79.52;100632.72;5001063;28;97050;-73
2020/12/14 07:36:27;;;;;;;1.65;0.70;;;7.40;95.10;;;11.03;79.95;100622.81;4984469;28;96748;-74
2020/12/14 07:38:58;;;;;;;1.88;1.27;;;7.40;95.10;;;11.02;79.30;100635.41;4982241;28;97042;-72
2020/12/14 07:41:27;;;;;;;0.50;0.50;;;7.40;95.10;;;11.03;79.21;100637.00;4973558;28;98971;-74
2020/12/14 07:43:57;;;;;;;0.47;0.47;;;7.40;95.10;;;11.01;79.35;100647.22;4987687;28;97291;-74
2020/12/14 07:46:30;;;;;;;2.38;0.63;;;7.40;95.10;;;11.00;79.11;100648.31;4980306;28;98137;-76
2020/12/14 07:49:05;;;;;;;1.40;0.73;;;7.40;95.10;;;10.96;79.67;100644.69;4976375;28;97092;-74
2020/12/14 07:51:37;;;;;;;0.35;0.32;;;7.40;95.10;;;10.89;79.73;100655.03;4984067;28;97899;-74
2020/12/14 07:54:12;;;;;;;0.45;0.45;;;7.40;95.10;;;10.83;80.47;100642.06;4985876;28;96738;-74
2020/12/14 07:56:55;;;;;;;2.05;1.38;;;7.40;95.10;;;10.88;80.01;100654.56;4989010;28;96687;-73
2020/12/14 07:59:26;;;;;;;1.48;0.75;;;7.30;95.10;;;10.88;80.18;100641.16;4976132;28;96810;-73
2020/12/14 08:01:55;;;;;;;0.95;0.70;;;7.30;95.10;;;10.92;79.34;100638.34;4985373;28;98091;-75
2020/12/14 08:04:27;;;;;;;0.63;0.63;;;7.30;95.20;;;10.86;80.04;100630.72;4985797;28;96803;-73
2020/12/14 08:06:57;;;;;;;2.15;0.93;;;7.30;95.20;;;10.91;79.94;100630.59;4983728;28;96972;-73
2020/12/14 08:09:31;;;;;;;1.17;0.55;;;7.30;95.20;;;10.89;79.80;100625.56;4988198;28;96923;-74
2020/12/14 08:12:00;;;;;;;1.25;0.80;;;7.30;95.20;;;10.94;79.76;100617.38;5004688;28;97393;-74
2020/12/14 08:14:32;;;;;;;0.20;0.20;;;7.30;95.20;;;11.01;79.72;100630.38;4996188;28;98219;-73
2020/12/14 08:17:03;;;;;;;0.30;0.30;;;7.30;95.20;;;11.09;79.27;100635.75;4997914;28;97053;-73
2020/12/14 08:19:36;;;;;;;0.43;0.43;;;7.30;95.20;;;11.11;79.40;100643.50;4985835;28;96896;-73
2020/12/14 08:22:09;;;;;;;0.57;0.55;;;7.40;95.20;;;11.17;79.12;100647.63;4977532;28;97934;-73
2020/12/14 08:24:39;;;;;;;1.08;0.50;;;7.40;95.20;;;11.16;79.27;100638.00;4985095;28;96917;-73
2020/12/14 08:27:10;;;;;;;2.53;0.95;;;7.40;95.20;;;11.20;79.38;100636.28;4965946;28;96731;-74
2020/12/14 08:30:04;;;;;;;0.50;0.50;;;7.40;95.20;;;11.24;78.87;100632.69;4987986;28;96976;-73
2020/12/14 08:32:33;;;;;;;6.18;1.30;;;7.40;95.20;;;11.29;79.42;100629.09;4971491;28;98170;-72
2020/12/14 08:35:19;;;;;;;0.50;0.50;;;7.40;95.20;;;11.21;79.72;100648.59;4983058;28;97754;-72
2020/12/14 08:37:51;;;;;;;0.68;0.52;;;7.50;95.50;;;11.20;79.18;100645.16;4980252;28;97356;-73
2020/12/14 08:40:19;;;;;;;0.35;0.35;;;7.50;95.30;;;11.22;79.83;100644.81;4983999;28;96956;-72
2020/12/14 08:42:47;;;;;;;0.20;0.20;;;7.50;95.20;;;11.27;79.16;100642.81;4974661;28;97769;-72
2020/12/14 08:45:15;;;;;;;0.63;0.63;;;7.50;95.20;;;11.28;79.90;100654.34;4982003;28;96624;-73
2020/12/14 08:47:44;;;;;;;2.08;0.75;;;7.60;95.20;;;11.31;79.92;100665.22;4976949;28;97080;-72
2020/12/14 08:50:16;;;;;;;2.03;0.70;;;7.60;95.20;;;11.35;79.83;100658.13;4989063;28;97362;-73
2020/12/14 08:52:59;;;;;;;0.70;0.70;;;7.70;95.20;;;11.44;79.01;100664.38;4989524;28;98334;-73
2020/12/14 08:55:40;;;;;;;0.93;0.93;;;7.60;95.20;;;11.41;79.49;100658.81;4984848;28;97668;-72
2020/12/14 08:58:08;;;;;;;0.68;0.68;;;7.70;95.20;;;11.52;79.11;100660.13;4985063;28;96684;-72
2020/12/14 09:00:36;;;;;;;0.63;0.63;;;7.70;95.20;;;11.61;79.02;100655.63;4983214;28;96940;-72
2020/12/14 09:03:05;;;;;;;0.30;0.30;;;7.80;95.20;;;11.79;78.56;100658.06;4986929;28;97866;-72
2020/12/14 09:05:35;;;;;;;11.23;1.23;;;7.90;95.20;;;11.84;78.70;100651.72;4987784;28;97743;-72
2020/12/14 09:08:17;;;;;;;1.65;0.75;;;7.90;95.20;;;11.85;78.43;100662.19;4977027;28;96920;-72
2020/12/14 09:10:57;;;;;;;0.82;0.30;;;7.90;95.20;;;11.86;78.86;100671.81;4983349;28;97535;-72
2020/12/14 09:13:25;;;;;;;0.38;0.38;;;8.00;95.20;;;11.91;78.84;100681.63;4982694;28;96901;-72
2020/12/14 09:16:00;;;;;;;0.80;0.80;;;8.00;95.20;;;11.97;78.88;100685.75;4982671;28;97833;-72
2020/12/14 09:18:33;;;;;;;0.20;0.20;;;8.00;95.20;;;12.03;78.31;100677.25;4989000;28;96809;-72
2020/12/14 09:21:04;;;;;;;0.95;0.88;;;8.10;95.20;;;12.05;77.98;100683.09;4961898;28;96726;-73
2020/12/14 09:23:34;;;;;;;0.95;0.90;;;8.10;95.20;;;12.03;79.18;100692.56;4968789;28;99116;-72
2020/12/14 09:26:05;;;;;;;0.50;0.50;;;8.10;95.30;;;12.07;78.35;100691.63;4983613;28;97152;-73
2020/12/14 09:28:34;;;;;;;2.00;1.05;;;8.20;95.30;;;12.12;78.96;100694.16;4984568;28;97211;-73
2020/12/14 09:31:04;;;;;;;1.35;1.05;;;8.20;95.30;;;12.18;78.71;100697.50;4982391;28;97037;-73
2020/12/14 09:33:31;;;;;;;0.30;0.30;;;8.20;95.20;;;12.21;78.29;100705.72;4986182;28;98175;-73
2020/12/14 09:35:59;;;;;;;0.45;0.45;;;8.30;95.30;;;12.32;78.23;100704.31;5003303;28;96695;-73
2020/12/14 09:38:32;;;;;;;1.20;1.08;;;8.40;95.30;;;12.37;78.27;100703.38;4987686;28;96814;-73
2020/12/14 09:40:59;;;;;;;3.05;1.50;;;8.40;95.20;;;12.22;78.86;100701.91;4962566;28;97781;-73
2020/12/14 09:43:30;;;;;;;1.42;1.33;;;8.40;95.20;;;12.23;79.08;100714.25;4968204;28;98446;-73
2020/12/14 09:45:59;;;;;;;0.73;0.55;;;8.50;95.20;;;12.21;79.34;100721.03;4962823;28;96795;-74
2020/12/14 09:48:30;;;;;;;0.57;0.50;;;8.50;95.20;;;12.18;79.41;100713.63;4986904;28;96920;-74
2020/12/14 09:50:58;;;;;;;0.10;0.10;;;8.50;95.20;;;12.21;79.61;100718.38;4983833;28;96920;-73
2020/12/14 09:53:25;;;;;;;0.57;0.47;;;8.50;95.20;;;12.22;79.66;100720.72;4980249;28;98155;-72
2020/12/14 09:55:57;;;;;;;0.60;0.60;;;8.50;95.20;;;12.27;79.24;100712.50;4980927;28;97704;-73
2020/12/14 09:58:29;;;;;;;1.73;1.63;;;8.50;95.20;;;12.27;79.53;100712.50;4984370;28;96736;-74
2020/12/14 10:00:57;;;;;;;1.00;0.90;;;8.60;95.20;;;12.22;79.50;100712.66;4979610;28;97403;-74
2020/12/14 10:03:25;;;;;;;1.48;1.27;;;8.60;95.20;;;12.24;79.69;100715.06;4962889;28;98111;-74
2020/12/14 10:05:52;;;;;;;8.20;1.83;;;8.60;95.20;;;12.34;79.80;100720.13;4981594;28;97496;-73
2020/12/14 10:08:20;;;;;;;1.20;1.00;;;8.60;95.20;;;12.33;79.09;100718.53;4984718;28;96716;-73
2020/12/14 10:10:49;;;;;;;1.52;1.27;;;8.60;95.20;;;12.35;79.82;100727.06;4983005;28;97346;-73
2020/12/14 10:13:17;;;;;;;1.25;0.95;;;8.70;95.30;;;12.44;79.53;100723.31;4970745;28;98481;-73
2020/12/14 10:15:45;;;;;;;1.98;1.42;;;8.70;95.30;;;12.63;79.01;100723.81;4983844;28;98052;-73
2020/12/14 10:18:12;;;;;;;20.40;2.30;;;8.70;95.30;;;12.68;78.74;100720.97;4985461;28;96810;-73
2020/12/14 10:20:40;;;;;;;1.75;1.17;;;8.80;95.30;;;12.62;78.91;100728.38;4987787;28;96886;-73
2020/12/14 10:23:08;;;;;;;1.63;1.45;;;8.80;95.30;;;12.66;79.14;100733.94;4988672;28;97701;-73
2020/12/14 10:25:36;;;;;;;1.05;1.05;;;8.90;95.30;;;12.74;78.80;100735.81;4986701;28;97059;-73
2020/12/14 10:28:06;;;;;;;1.27;1.13;;;8.90;95.20;;;12.69;79.09;100727.91;4981971;28;96929;-73
2020/12/14 10:30:35;;;;;;;1.30;1.02;;;8.90;95.20;;;12.77;79.40;100729.81;4970863;28;96752;-73
2020/12/14 10:33:16;;;;;;;1.58;1.23;;;9.00;95.20;;;12.83;78.81;100729.34;4987054;28;99822;-74
2020/12/14 10:35:44;;;;;;;8.25;1.33;;;9.00;95.50;;;12.88;79.05;100736.44;4986107;28;96783;-74